Cross Plains, Indiana
Current Conditions -  °F | °C
As of 1:52 PM on Friday 31 Oct 2014 (Local Time) from KCVG Reporting Station
Light Rain Light Rain  
Wind Chill: 34°   Ceiling: 2800
Heat Index: 42°   Visibility: 8mi
Dew Point: 38°   Wind: 18mph
Humidity: 85%   Direction: 330°NNW
Pressure: 29.92"   Gusts: 25mph
Location:  38.94°N, 85.2°W
Report Text: KCVG 311752Z 33016G22KT 8SM -RA FEW013 BKN028 OVC034 06/03 A2992 RMK AO2 PK WND 31031/1735 CIG 019 36R SLP133 P0004 60007 T00560033 10089 20056 58011
Loading
Personal Weather Stations






























Interactive Weather Map
Tropical Storm Tracking
New forecast layout! Learn more

10-Day Weather Forecast

Advertisements
Track Severe Weather on mobile